sensor_id;sensor_type;location;lat;lon;timestamp;pressure;altitude;pressure_sealevel;temperature;humidity
80988;BME280;70452;39.386;-3.210;2024-01-25T00:02:23;95976.19;;;5.67;100.00
80988;BME280;70452;39.386;-3.210;2024-01-25T00:05:20;95973.06;;;5.63;100.00
80988;BME280;70452;39.386;-3.210;2024-01-25T00:07:59;95984.50;;;5.79;100.00
80988;BME280;70452;39.386;-3.210;2024-01-25T00:10:42;95971.63;;;5.68;100.00
80988;BME280;70452;39.386;-3.210;2024-01-25T00:16:19;95966.22;;;5.68;100.00
80988;BME280;70452;39.386;-3.210;2024-01-25T00:19:18;95962.66;;;5.74;100.00
80988;BME280;70452;39.386;-3.210;2024-01-25T00:21:45;95963.72;;;5.79;100.00
80988;BME280;70452;39.386;-3.210;2024-01-25T00:24:39;95961.44;;;5.63;100.00
80988;BME280;70452;39.386;-3.210;2024-01-25T00:27:21;95963.31;;;5.42;100.00
80988;BME280;70452;39.386;-3.210;2024-01-25T00:30:18;95967.91;;;5.42;100.00
80988;BME280;70452;39.386;-3.210;2024-01-25T00:35:47;95953.09;;;5.31;100.00
80988;BME280;70452;39.386;-3.210;2024-01-25T00:38:23;95954.38;;;5.35;100.00
80988;BME280;70452;39.386;-3.210;2024-01-25T00:41:08;95949.78;;;5.36;100.00
80988;BME280;70452;39.386;-3.210;2024-01-25T00:44:19;95948.56;;;5.32;100.00
80988;BME280;70452;39.386;-3.210;2024-01-25T00:50:02;95947.94;;;5.23;100.00
80988;BME280;70452;39.386;-3.210;2024-01-25T00:52:45;95945.63;;;5.13;100.00
80988;BME280;70452;39.386;-3.210;2024-01-25T00:55:45;95943.31;;;5.03;100.00
80988;BME280;70452;39.386;-3.210;2024-01-25T00:58:35;95944.78;;;5.06;100.00
80988;BME280;70452;39.386;-3.210;2024-01-25T01:01:23;95931.28;;;5.06;100.00
80988;BME280;70452;39.386;-3.210;2024-01-25T01:04:20;95935.22;;;5.17;100.00
80988;BME280;70452;39.386;-3.210;2024-01-25T01:07:02;95931.09;;;5.21;100.00
80988;BME280;70452;39.386;-3.210;2024-01-25T01:12:41;95920.47;;;5.19;100.00
80988;BME280;70452;39.386;-3.210;2024-01-25T01:15:44;95920.28;;;5.07;100.00
80988;BME280;70452;39.386;-3.210;2024-01-25T01:21:21;95917.34;;;5.22;100.00
80988;BME280;70452;39.386;-3.210;2024-01-25T01:23:56;95917.97;;;5.31;100.00
80988;BME280;70452;39.386;-3.210;2024-01-25T01:26:53;95911.94;;;5.36;100.00
80988;BME280;70452;39.386;-3.210;2024-01-25T01:29:45;95911.94;;;5.29;100.00
80988;BME280;70452;39.386;-3.210;2024-01-25T01:32:23;95913.00;;;5.35;100.00
80988;BME280;70452;39.386;-3.210;2024-01-25T01:34:53;95918.41;;;5.35;100.00
80988;BME280;70452;39.386;-3.210;2024-01-25T01:37:33;95924.84;;;5.47;100.00
80988;BME280;70452;39.386;-3.210;2024-01-25T01:40:20;95922.34;;;5.45;100.00
80988;BME280;70452;39.386;-3.210;2024-01-25T01:43:20;95927.34;;;5.35;100.00
80988;BME280;70452;39.386;-3.210;2024-01-25T01:46:00;95923.59;;;5.23;100.00
80988;BME280;70452;39.386;-3.210;2024-01-25T01:54:58;95920.25;;;5.01;100.00
80988;BME280;70452;39.386;-3.210;2024-01-25T01:57:35;95923.56;;;4.89;100.00
80988;BME280;70452;39.386;-3.210;2024-01-25T02:03:31;95919.81;;;4.77;100.00
80988;BME280;70452;39.386;-3.210;2024-01-25T02:06:36;95918.72;;;4.58;100.00
80988;BME280;70452;39.386;-3.210;2024-01-25T02:09:38;95919.31;;;4.54;100.00
80988;BME280;70452;39.386;-3.210;2024-01-25T02:12:25;95920.56;;;4.44;100.00
80988;BME280;70452;39.386;-3.210;2024-01-25T02:15:29;95923.84;;;4.33;100.00
80988;BME280;70452;39.386;-3.210;2024-01-25T02:18:15;95926.97;;;4.30;100.00
80988;BME280;70452;39.386;-3.210;2024-01-25T02:20:54;95918.47;;;4.40;100.00
80988;BME280;70452;39.386;-3.210;2024-01-25T02:26:22;95928.25;;;4.41;100.00
80988;BME280;70452;39.386;-3.210;2024-01-25T02:28:59;95930.31;;;4.39;100.00
80988;BME280;70452;39.386;-3.210;2024-01-25T02:31:48;95926.13;;;4.36;100.00
80988;BME280;70452;39.386;-3.210;2024-01-25T02:34:21;95921.34;;;4.38;100.00
80988;BME280;70452;39.386;-3.210;2024-01-25T02:36:57;95923.84;;;4.33;100.00
80988;BME280;70452;39.386;-3.210;2024-01-25T02:39:28;95923.56;;;4.15;100.00
80988;BME280;70452;39.386;-3.210;2024-01-25T02:42:07;95917.84;;;3.89;100.00
80988;BME280;70452;39.386;-3.210;2024-01-25T02:44:45;95915.13;;;3.83;100.00
80988;BME280;70452;39.386;-3.210;2024-01-25T02:47:53;95907.13;;;3.68;100.00
80988;BME280;70452;39.386;-3.210;2024-01-25T02:53:50;95904.91;;;3.71;100.00
80988;BME280;70452;39.386;-3.210;2024-01-25T02:56:58;95911.47;;;3.62;100.00
80988;BME280;70452;39.386;-3.210;2024-01-25T02:59:52;95909.72;;;3.48;100.00
80988;BME280;70452;39.386;-3.210;2024-01-25T03:02:30;95912.22;;;3.21;100.00
80988;BME280;70452;39.386;-3.210;2024-01-25T03:05:12;95913.34;;;3.05;100.00
80988;BME280;70452;39.386;-3.210;2024-01-25T03:07:58;95905.59;;;2.95;100.00
80988;BME280;70452;39.386;-3.210;2024-01-25T03:10:37;95905.78;;;2.94;100.00
80988;BME280;70452;39.386;-3.210;2024-01-25T03:13:19;95893.28;;;2.86;100.00
80988;BME280;70452;39.386;-3.210;2024-01-25T03:15:53;95897.91;;;2.92;100.00
80988;BME280;70452;39.386;-3.210;2024-01-25T03:18:49;95894.44;;;2.98;100.00
80988;BME280;70452;39.386;-3.210;2024-01-25T03:21:28;95897.38;;;3.04;100.00
80988;BME280;70452;39.386;-3.210;2024-01-25T03:23:57;95902.63;;;3.12;100.00
80988;BME280;70452;39.386;-3.210;2024-01-25T03:26:32;95895.19;;;3.14;100.00
80988;BME280;70452;39.386;-3.210;2024-01-25T03:32:07;95897.03;;;3.13;100.00
80988;BME280;70452;39.386;-3.210;2024-01-25T03:35:01;95882.09;;;3.11;100.00
80988;BME280;70452;39.386;-3.210;2024-01-25T03:38:07;95891.72;;;3.20;100.00
80988;BME280;70452;39.386;-3.210;2024-01-25T03:40:42;95886.56;;;3.25;100.00
80988;BME280;70452;39.386;-3.210;2024-01-25T03:43:15;95885.94;;;3.30;100.00
80988;BME280;70452;39.386;-3.210;2024-01-25T03:46:07;95888.47;;;3.31;100.00
80988;BME280;70452;39.386;-3.210;2024-01-25T03:48:48;95887.25;;;3.34;100.00
80988;BME280;70452;39.386;-3.210;2024-01-25T03:51:22;95887.25;;;3.34;100.00
80988;BME280;70452;39.386;-3.210;2024-01-25T03:53:52;95884.06;;;3.24;100.00
80988;BME280;70452;39.386;-3.210;2024-01-25T03:56:23;95881.66;;;3.35;100.00
80988;BME280;70452;39.386;-3.210;2024-01-25T03:58:51;95875.06;;;3.45;100.00
80988;BME280;70452;39.386;-3.210;2024-01-25T04:01:19;95885.66;;;3.18;100.00
80988;BME280;70452;39.386;-3.210;2024-01-25T04:03:44;95884.34;;;3.07;100.00
80988;BME280;70452;39.386;-3.210;2024-01-25T04:06:15;95885.34;;;2.99;100.00
80988;BME280;70452;39.386;-3.210;2024-01-25T04:08:41;95886.13;;;2.72;100.00
80988;BME280;70452;39.386;-3.210;2024-01-25T04:11:08;95891.00;;;2.61;100.00
80988;BME280;70452;39.386;-3.210;2024-01-25T04:13:37;95875.16;;;2.52;100.00
80988;BME280;70452;39.386;-3.210;2024-01-25T04:16:03;95883.19;;;2.45;100.00
80988;BME280;70452;39.386;-3.210;2024-01-25T04:18:29;95880.41;;;2.38;100.00
80988;BME280;70452;39.386;-3.210;2024-01-25T04:21:00;95885.50;;;2.48;100.00
80988;BME280;70452;39.386;-3.210;2024-01-25T04:23:26;95886.13;;;2.50;100.00
80988;BME280;70452;39.386;-3.210;2024-01-25T04:25:51;95892.03;;;2.60;100.00
80988;BME280;70452;39.386;-3.210;2024-01-25T04:28:17;95883.75;;;2.62;100.00
80988;BME280;70452;39.386;-3.210;2024-01-25T04:30:43;95885.88;;;2.67;100.00
80988;BME280;70452;39.386;-3.210;2024-01-25T04:33:09;95880.63;;;2.58;100.00
80988;BME280;70452;39.386;-3.210;2024-01-25T04:35:34;95882.34;;;2.66;100.00
80988;BME280;70452;39.386;-3.210;2024-01-25T04:38:05;95880.88;;;2.63;100.00
80988;BME280;70452;39.386;-3.210;2024-01-25T04:40:33;95880.50;;;2.67;100.00
80988;BME280;70452;39.386;-3.210;2024-01-25T04:42:59;95876.44;;;2.77;100.00
80988;BME280;70452;39.386;-3.210;2024-01-25T04:45:24;95882.91;;;2.83;100.00
80988;BME280;70452;39.386;-3.210;2024-01-25T04:47:53;95877.72;;;2.81;100.00
80988;BME280;70452;39.386;-3.210;2024-01-25T04:50:19;95876.63;;;2.76;100.00
80988;BME280;70452;39.386;-3.210;2024-01-25T04:52:46;95883.19;;;2.67;100.00
80988;BME280;70452;39.386;-3.210;2024-01-25T04:55:14;95882.34;;;2.66;100.00
80988;BME280;70452;39.386;-3.210;2024-01-25T04:57:45;95877.97;;;2.43;100.00
80988;BME280;70452;39.386;-3.210;2024-01-25T05:00:20;95882.50;;;2.21;100.00
80988;BME280;70452;39.386;-3.210;2024-01-25T05:02:49;95867.25;;;2.07;100.00
80988;BME280;70452;39.386;-3.210;2024-01-25T05:05:15;95874.41;;;2.00;100.00
80988;BME280;70452;39.386;-3.210;2024-01-25T05:07:44;95871.34;;;2.03;100.00
80988;BME280;70452;39.386;-3.210;2024-01-25T05:10:13;95867.34;;;2.14;100.00
80988;BME280;70452;39.386;-3.210;2024-01-25T05:12:44;95872.38;;;2.23;100.00
80988;BME280;70452;39.386;-3.210;2024-01-25T05:15:15;95877.19;;;2.28;100.00
80988;BME280;70452;39.386;-3.210;2024-01-25T05:17:42;95868.97;;;2.15;100.00
80988;BME280;70452;39.386;-3.210;2024-01-25T05:20:13;95872.06;;;2.12;100.00
80988;BME280;70452;39.386;-3.210;2024-01-25T05:22:46;95871.91;;;1.98;100.00
80988;BME280;70452;39.386;-3.210;2024-01-25T05:25:11;95867.91;;;1.94;100.00
80988;BME280;70452;39.386;-3.210;2024-01-25T05:27:42;95872.84;;;1.91;100.00
80988;BME280;70452;39.386;-3.210;2024-01-25T05:30:08;95867.34;;;1.99;100.00
80988;BME280;70452;39.386;-3.210;2024-01-25T05:32:38;95876.41;;;2.13;100.00
80988;BME280;70452;39.386;-3.210;2024-01-25T05:35:04;95875.59;;;2.12;100.00
80988;BME280;70452;39.386;-3.210;2024-01-25T05:37:36;95877.75;;;2.23;100.00
80988;BME280;70452;39.386;-3.210;2024-01-25T05:40:05;95881.16;;;2.11;100.00
80988;BME280;70452;39.386;-3.210;2024-01-25T05:42:31;95884.28;;;1.93;100.00
80988;BME280;70452;39.386;-3.210;2024-01-25T05:44:58;95889.09;;;1.82;100.00
80988;BME280;70452;39.386;-3.210;2024-01-25T05:47:26;95886.88;;;1.71;100.00
80988;BME280;70452;39.386;-3.210;2024-01-25T05:49:54;95889.66;;;1.63;100.00
80988;BME280;70452;39.386;-3.210;2024-01-25T05:52:23;95889.88;;;1.46;100.00
80988;BME280;70452;39.386;-3.210;2024-01-25T05:54:49;95892.75;;;1.45;100.00
80988;BME280;70452;39.386;-3.210;2024-01-25T05:57:15;95894.94;;;1.56;100.00
80988;BME280;70452;39.386;-3.210;2024-01-25T05:59:40;95902.75;;;1.66;100.00
80988;BME280;70452;39.386;-3.210;2024-01-25T06:02:06;95904.41;;;1.67;100.00
80988;BME280;70452;39.386;-3.210;2024-01-25T06:04:33;95904.59;;;1.65;100.00
80988;BME280;70452;39.386;-3.210;2024-01-25T06:06:58;95896.69;;;1.79;100.00
80988;BME280;70452;39.386;-3.210;2024-01-25T06:09:24;95892.72;;;1.90;100.00
80988;BME280;70452;39.386;-3.210;2024-01-25T06:11:52;95895.94;;;2.00;100.00
80988;BME280;70452;39.386;-3.210;2024-01-25T06:14:20;95887.97;;;1.77;100.00
80988;BME280;70452;39.386;-3.210;2024-01-25T06:16:46;95885.38;;;1.83;100.00
80988;BME280;70452;39.386;-3.210;2024-01-25T06:19:11;95884.72;;;1.96;100.00
80988;BME280;70452;39.386;-3.210;2024-01-25T06:21:37;95875.94;;;1.87;100.00
80988;BME280;70452;39.386;-3.210;2024-01-25T06:24:11;95885.72;;;2.10;100.00
80988;BME280;70452;39.386;-3.210;2024-01-25T06:26:37;95888.16;;;2.27;100.00
80988;BME280;70452;39.386;-3.210;2024-01-25T06:29:02;95877.09;;;2.36;100.00
80988;BME280;70452;39.386;-3.210;2024-01-25T06:31:28;95872.84;;;2.49;100.00
80988;BME280;70452;39.386;-3.210;2024-01-25T06:33:53;95874.19;;;2.59;100.00
80988;BME280;70452;39.386;-3.210;2024-01-25T06:36:19;95881.56;;;2.72;100.00
80988;BME280;70452;39.386;-3.210;2024-01-25T06:38:45;95877.72;;;2.81;100.00
80988;BME280;70452;39.386;-3.210;2024-01-25T06:41:11;95881.50;;;2.87;100.00
80988;BME280;70452;39.386;-3.210;2024-01-25T06:43:37;95888.94;;;2.85;100.00
80988;BME280;70452;39.386;-3.210;2024-01-25T06:46:03;95890.59;;;2.86;100.00
80988;BME280;70452;39.386;-3.210;2024-01-25T06:48:28;95886.03;;;2.87;100.00
80988;BME280;70452;39.386;-3.210;2024-01-25T06:50:54;95888.09;;;2.85;100.00
80988;BME280;70452;39.386;-3.210;2024-01-25T06:53:20;95892.84;;;2.83;100.00
80988;BME280;70452;39.386;-3.210;2024-01-25T06:55:46;95898.63;;;2.79;100.00
80988;BME280;70452;39.386;-3.210;2024-01-25T06:58:11;95895.09;;;2.79;100.00
80988;BME280;70452;39.386;-3.210;2024-01-25T07:00:38;95889.09;;;2.77;100.00
80988;BME280;70452;39.386;-3.210;2024-01-25T07:03:07;95893.34;;;2.71;100.00
80988;BME280;70452;39.386;-3.210;2024-01-25T07:05:35;95893.56;;;2.70;100.00
80988;BME280;70452;39.386;-3.210;2024-01-25T07:08:01;95907.19;;;2.68;100.00
80988;BME280;70452;39.386;-3.210;2024-01-25T07:10:27;95898.94;;;2.70;100.00
80988;BME280;70452;39.386;-3.210;2024-01-25T07:12:53;95891.91;;;2.69;100.00
80988;BME280;70452;39.386;-3.210;2024-01-25T07:15:24;95888.34;;;2.68;100.00
80988;BME280;70452;39.386;-3.210;2024-01-25T07:17:49;95890.47;;;2.73;100.00
80988;BME280;70452;39.386;-3.210;2024-01-25T07:20:15;95878.94;;;2.79;100.00
80988;BME280;70452;39.386;-3.210;2024-01-25T07:22:41;95881.25;;;2.82;100.00
80988;BME280;70452;39.386;-3.210;2024-01-25T07:25:09;95875.00;;;2.81;100.00
80988;BME280;70452;39.386;-3.210;2024-01-25T07:27:34;95879.38;;;2.83;100.00
80988;BME280;70452;39.386;-3.210;2024-01-25T07:30:00;95870.25;;;2.84;100.00
80988;BME280;70452;39.386;-3.210;2024-01-25T07:32:26;95876.69;;;2.83;100.00
80988;BME280;70452;39.386;-3.210;2024-01-25T07:34:52;95881.09;;;2.90;100.00
80988;BME280;70452;39.386;-3.210;2024-01-25T07:37:18;95884.03;;;2.95;100.00
80988;BME280;70452;39.386;-3.210;2024-01-25T07:39:44;95877.19;;;2.93;100.00
80988;BME280;70452;39.386;-3.210;2024-01-25T07:42:10;95878.03;;;2.93;100.00
80988;BME280;70452;39.386;-3.210;2024-01-25T07:44:36;95876.56;;;2.91;100.00
80988;BME280;70452;39.386;-3.210;2024-01-25T07:47:02;95879.78;;;2.79;100.00
80988;BME280;70452;39.386;-3.210;2024-01-25T07:49:29;95882.28;;;2.81;100.00
80988;BME280;70452;39.386;-3.210;2024-01-25T07:51:55;95887.53;;;2.89;100.00
80988;BME280;70452;39.386;-3.210;2024-01-25T07:54:22;95887.59;;;2.96;100.00
80988;BME280;70452;39.386;-3.210;2024-01-25T07:56:48;95886.22;;;3.07;100.00
80988;BME280;70452;39.386;-3.210;2024-01-25T07:59:13;95893.09;;;3.16;100.00
80988;BME280;70452;39.386;-3.210;2024-01-25T08:01:39;95893.34;;;3.21;100.00
80988;BME280;70452;39.386;-3.210;2024-01-25T08:04:08;95893.25;;;3.36;100.00
80988;BME280;70452;39.386;-3.210;2024-01-25T08:06:33;95893.16;;;3.51;100.00
80988;BME280;70452;39.386;-3.210;2024-01-25T08:09:07;95889.22;;;3.53;100.00
80988;BME280;70452;39.386;-3.210;2024-01-25T08:11:34;95892.41;;;3.64;100.00
80988;BME280;70452;39.386;-3.210;2024-01-25T08:14:00;95894.59;;;3.82;100.00
80988;BME280;70452;39.386;-3.210;2024-01-25T08:16:26;95891.72;;;3.97;100.00
80988;BME280;70452;39.386;-3.210;2024-01-25T08:18:51;95894.31;;;4.18;100.00
80988;BME280;70452;39.386;-3.210;2024-01-25T08:21:17;95899.53;;;4.33;100.00
80988;BME280;70452;39.386;-3.210;2024-01-25T08:23:43;95908.31;;;4.48;100.00
80988;BME280;70452;39.386;-3.210;2024-01-25T08:26:08;95900.63;;;4.52;100.00
80988;BME280;70452;39.386;-3.210;2024-01-25T08:28:41;95899.41;;;4.61;100.00
80988;BME280;70452;39.386;-3.210;2024-01-25T08:31:08;95894.22;;;4.60;100.00
80988;BME280;70452;39.386;-3.210;2024-01-25T08:33:34;95898.00;;;4.85;100.00
80988;BME280;70452;39.386;-3.210;2024-01-25T08:36:00;95894.47;;;4.92;100.00
80988;BME280;70452;39.386;-3.210;2024-01-25T08:38:29;95887.84;;;5.07;100.00
80988;BME280;70452;39.386;-3.210;2024-01-25T08:40:55;95896.16;;;5.26;100.00
80988;BME280;70452;39.386;-3.210;2024-01-25T08:43:21;95886.78;;;5.35;100.00
80988;BME280;70452;39.386;-3.210;2024-01-25T08:45:47;95889.69;;;5.34;100.00
80988;BME280;70452;39.386;-3.210;2024-01-25T08:48:21;95890.09;;;5.44;100.00
80988;BME280;70452;39.386;-3.210;2024-01-25T08:50:47;95883.22;;;5.55;100.00
80988;BME280;70452;39.386;-3.210;2024-01-25T08:53:18;95883.59;;;5.72;100.00
80988;BME280;70452;39.386;-3.210;2024-01-25T08:55:43;95878.78;;;5.80;100.00
80988;BME280;70452;39.386;-3.210;2024-01-25T08:58:09;95881.75;;;5.59;100.00
80988;BME280;70452;39.386;-3.210;2024-01-25T09:00:38;95881.38;;;5.49;100.00
80988;BME280;70452;39.386;-3.210;2024-01-25T09:03:03;95877.38;;;5.64;100.00
80988;BME280;70452;39.386;-3.210;2024-01-25T09:05:29;95880.34;;;5.30;100.00
80988;BME280;70452;39.386;-3.210;2024-01-25T09:07:56;95885.31;;;5.39;100.00
80988;BME280;70452;39.386;-3.210;2024-01-25T09:10:21;95881.09;;;5.70;100.00
80988;BME280;70452;39.386;-3.210;2024-01-25T09:12:47;95881.88;;;5.97;100.00
80988;BME280;70452;39.386;-3.210;2024-01-25T09:15:13;95881.97;;;6.29;100.00
80988;BME280;70452;39.386;-3.210;2024-01-25T09:17:38;95893.50;;;6.05;100.00
80988;BME280;70452;39.386;-3.210;2024-01-25T09:20:06;95895.81;;;6.46;100.00
80988;BME280;70452;39.386;-3.210;2024-01-25T09:22:34;95891.50;;;6.38;100.00
80988;BME280;70452;39.386;-3.210;2024-01-25T09:25:02;95899.22;;;6.35;100.00
80988;BME280;70452;39.386;-3.210;2024-01-25T09:27:27;95899.28;;;6.22;100.00
80988;BME280;70452;39.386;-3.210;2024-01-25T09:29:53;95893.22;;;6.26;100.00
80988;BME280;70452;39.386;-3.210;2024-01-25T09:32:19;95897.09;;;6.44;100.00
80988;BME280;70452;39.386;-3.210;2024-01-25T09:34:45;95897.75;;;6.78;100.00
80988;BME280;70452;39.386;-3.210;2024-01-25T09:37:11;95900.31;;;6.66;100.00
80988;BME280;70452;39.386;-3.210;2024-01-25T09:39:37;95899.72;;;6.95;100.00
80988;BME280;70452;39.386;-3.210;2024-01-25T09:42:03;95901.34;;;7.28;100.00
80988;BME280;70452;39.386;-3.210;2024-01-25T09:44:30;95891.19;;;7.42;100.00
80988;BME280;70452;39.386;-3.210;2024-01-25T09:46:56;95892.59;;;7.70;100.00
80988;BME280;70452;39.386;-3.210;2024-01-25T09:49:22;95904.25;;;7.77;100.00
80988;BME280;70452;39.386;-3.210;2024-01-25T09:51:50;95902.63;;;7.69;100.00
80988;BME280;70452;39.386;-3.210;2024-01-25T09:54:16;95903.03;;;7.73;100.00
80988;BME280;70452;39.386;-3.210;2024-01-25T09:56:42;95902.03;;;7.67;100.00
80988;BME280;70452;39.386;-3.210;2024-01-25T09:59:08;95901.31;;;7.79;100.00
80988;BME280;70452;39.386;-3.210;2024-01-25T10:01:34;95909.63;;;7.84;100.00
80988;BME280;70452;39.386;-3.210;2024-01-25T10:04:00;95909.66;;;7.96;100.00
80988;BME280;70452;39.386;-3.210;2024-01-25T10:06:25;95910.06;;;7.99;100.00
80988;BME280;70452;39.386;-3.210;2024-01-25T10:08:52;95900.56;;;8.27;100.00
80988;BME280;70452;39.386;-3.210;2024-01-25T10:11:20;95907.56;;;8.35;100.00
80988;BME280;70452;39.386;-3.210;2024-01-25T10:13:48;95907.66;;;8.47;100.00
80988;BME280;70452;39.386;-3.210;2024-01-25T10:16:18;95900.16;;;8.60;100.00
80988;BME280;70452;39.386;-3.210;2024-01-25T10:18:46;95899.72;;;8.63;100.00
80988;BME280;70452;39.386;-3.210;2024-01-25T10:21:13;95908.47;;;8.66;100.00
80988;BME280;70452;39.386;-3.210;2024-01-25T10:23:40;95913.44;;;8.69;100.00
80988;BME280;70452;39.386;-3.210;2024-01-25T10:26:07;95906.25;;;8.74;100.00
80988;BME280;70452;39.386;-3.210;2024-01-25T10:28:33;95906.66;;;8.90;100.00
80988;BME280;70452;39.386;-3.210;2024-01-25T10:31:01;95903.66;;;9.10;100.00
80988;BME280;70452;39.386;-3.210;2024-01-25T10:33:29;95910.66;;;9.29;100.00
80988;BME280;70452;39.386;-3.210;2024-01-25T10:35:56;95906.31;;;9.40;100.00
80988;BME280;70452;39.386;-3.210;2024-01-25T10:41:01;95916.63;;;9.62;100.00
80988;BME280;70452;39.386;-3.210;2024-01-25T10:43:28;95913.47;;;9.76;100.00
80988;BME280;70452;39.386;-3.210;2024-01-25T10:45:56;95913.19;;;9.90;100.00
80988;BME280;70452;39.386;-3.210;2024-01-25T10:48:24;95907.41;;;9.98;100.00
80988;BME280;70452;39.386;-3.210;2024-01-25T10:50:51;95911.50;;;10.12;100.00
80988;BME280;70452;39.386;-3.210;2024-01-25T10:53:17;95909.00;;;10.23;100.00
80988;BME280;70452;39.386;-3.210;2024-01-25T10:55:44;95897.06;;;10.24;100.00
80988;BME280;70452;39.386;-3.210;2024-01-25T10:58:13;95898.47;;;10.38;100.00
80988;BME280;70452;39.386;-3.210;2024-01-25T11:00:41;95902.75;;;10.34;100.00
80988;BME280;70452;39.386;-3.210;2024-01-25T11:03:06;95894.09;;;10.37;100.00
80988;BME280;70452;39.386;-3.210;2024-01-25T11:05:32;95891.00;;;10.45;100.00
80988;BME280;70452;39.386;-3.210;2024-01-25T11:07:58;95885.78;;;10.73;100.00
80988;BME280;70452;39.386;-3.210;2024-01-25T11:10:25;95890.88;;;10.81;100.00
80988;BME280;70452;39.386;-3.210;2024-01-25T11:12:58;95886.50;;;10.97;100.00
80988;BME280;70452;39.386;-3.210;2024-01-25T11:15:36;95874.09;;;11.18;100.00
80988;BME280;70452;39.386;-3.210;2024-01-25T11:18:08;95876.84;;;11.35;100.00
80988;BME280;70452;39.386;-3.210;2024-01-25T11:20:35;95868.97;;;11.55;100.00
80988;BME280;70452;39.386;-3.210;2024-01-25T11:23:02;95874.59;;;11.66;100.00
80988;BME280;70452;39.386;-3.210;2024-01-25T11:25:30;95865.47;;;11.77;100.00
80988;BME280;70452;39.386;-3.210;2024-01-25T11:27:56;95863.38;;;11.84;100.00
80988;BME280;70452;39.386;-3.210;2024-01-25T11:30:22;95858.25;;;12.05;100.00
80988;BME280;70452;39.386;-3.210;2024-01-25T11:32:48;95860.00;;;11.94;100.00
80988;BME280;70452;39.386;-3.210;2024-01-25T11:35:14;95849.41;;;11.97;100.00
80988;BME280;70452;39.386;-3.210;2024-01-25T11:37:49;95846.31;;;12.11;100.00
80988;BME280;70452;39.386;-3.210;2024-01-25T11:40:16;95842.38;;;12.24;100.00
80988;BME280;70452;39.386;-3.210;2024-01-25T11:42:45;95841.47;;;12.40;100.00
80988;BME280;70452;39.386;-3.210;2024-01-25T11:45:14;95837.78;;;12.51;100.00
80988;BME280;70452;39.386;-3.210;2024-01-25T11:47:41;95824.69;;;12.53;100.00
80988;BME280;70452;39.386;-3.210;2024-01-25T11:50:11;95829.75;;;12.67;100.00
80988;BME280;70452;39.386;-3.210;2024-01-25T11:52:37;95825.44;;;12.71;100.00
80988;BME280;70452;39.386;-3.210;2024-01-25T11:55:05;95817.63;;;12.85;100.00
80988;BME280;70452;39.386;-3.210;2024-01-25T11:57:34;95822.19;;;13.06;100.00
80988;BME280;70452;39.386;-3.210;2024-01-25T12:00:01;95802.78;;;13.08;100.00
80988;BME280;70452;39.386;-3.210;2024-01-25T12:02:27;95805.06;;;13.16;100.00
80988;BME280;70452;39.386;-3.210;2024-01-25T12:04:53;95810.31;;;13.23;100.00
80988;BME280;70452;39.386;-3.210;2024-01-25T12:07:21;95796.63;;;13.23;100.00
80988;BME280;70452;39.386;-3.210;2024-01-25T12:10:16;95788.91;;;13.47;100.00
80988;BME280;70452;39.386;-3.210;2024-01-25T12:12:43;95794.16;;;13.54;100.00
80988;BME280;70452;39.386;-3.210;2024-01-25T12:15:08;95786.19;;;13.52;100.00
80988;BME280;70452;39.386;-3.210;2024-01-25T12:17:34;95790.41;;;13.70;100.00
80988;BME280;70452;39.386;-3.210;2024-01-25T12:20:07;95779.81;;;13.79;100.00
80988;BME280;70452;39.386;-3.210;2024-01-25T12:22:36;95772.44;;;13.84;100.00
80988;BME280;70452;39.386;-3.210;2024-01-25T12:25:06;95769.44;;;13.91;100.00
80988;BME280;70452;39.386;-3.210;2024-01-25T12:27:35;95771.06;;;13.87;100.00
80988;BME280;70452;39.386;-3.210;2024-01-25T12:30:01;95760.25;;;13.65;100.00
80988;BME280;70452;39.386;-3.210;2024-01-25T12:32:26;95758.41;;;13.76;100.00
80988;BME280;70452;39.386;-3.210;2024-01-25T12:34:55;95752.91;;;13.71;100.00
80988;BME280;70452;39.386;-3.210;2024-01-25T12:37:23;95747.41;;;13.71;100.00
80988;BME280;70452;39.386;-3.210;2024-01-25T12:39:53;95748.34;;;13.92;100.00
80988;BME280;70452;39.386;-3.210;2024-01-25T12:42:19;95745.09;;;14.00;100.00
80988;BME280;70452;39.386;-3.210;2024-01-25T12:44:44;95738.22;;;13.97;100.00
80988;BME280;70452;39.386;-3.210;2024-01-25T12:47:11;95742.66;;;14.03;100.00
80988;BME280;70452;39.386;-3.210;2024-01-25T12:49:42;95731.16;;;14.06;100.00
80988;BME280;70452;39.386;-3.210;2024-01-25T12:52:11;95724.88;;;14.21;100.00
80988;BME280;70452;39.386;-3.210;2024-01-25T12:54:38;95724.94;;;14.37;100.00
80988;BME280;70452;39.386;-3.210;2024-01-25T12:57:04;95725.22;;;14.45;100.00
80988;BME280;70452;39.386;-3.210;2024-01-25T12:59:30;95715.97;;;14.62;100.00
80988;BME280;70452;39.386;-3.210;2024-01-25T13:01:56;95714.03;;;14.73;100.00
80988;BME280;70452;39.386;-3.210;2024-01-25T13:04:21;95711.03;;;14.79;100.00
80988;BME280;70452;39.386;-3.210;2024-01-25T13:06:48;95704.47;;;14.86;100.00
80988;BME280;70452;39.386;-3.210;2024-01-25T13:09:14;95702.53;;;14.96;100.00
80988;BME280;70452;39.386;-3.210;2024-01-25T13:11:41;95703.63;;;14.95;100.00
80988;BME280;70452;39.386;-3.210;2024-01-25T13:14:07;95689.63;;;15.12;100.00
80988;BME280;70452;39.386;-3.210;2024-01-25T13:16:32;95688.25;;;15.15;100.00
80988;BME280;70452;39.386;-3.210;2024-01-25T13:18:58;95687.72;;;15.23;100.00
80988;BME280;70452;39.386;-3.210;2024-01-25T13:21:33;95685.78;;;15.24;100.00
80988;BME280;70452;39.386;-3.210;2024-01-25T13:24:01;95686.84;;;15.33;100.00
80988;BME280;70452;39.386;-3.210;2024-01-25T13:26:27;95671.50;;;15.32;100.00
80988;BME280;70452;39.386;-3.210;2024-01-25T13:28:52;95670.63;;;15.36;100.00
80988;BME280;70452;39.386;-3.210;2024-01-25T13:31:18;95666.00;;;15.37;100.00
80988;BME280;70452;39.386;-3.210;2024-01-25T13:33:44;95669.53;;;15.43;100.00
80988;BME280;70452;39.386;-3.210;2024-01-25T13:36:11;95669.50;;;15.53;100.00
80988;BME280;70452;39.386;-3.210;2024-01-25T13:38:39;95662.09;;;15.53;100.00
80988;BME280;70452;39.386;-3.210;2024-01-25T13:41:07;95652.19;;;15.57;100.00
80988;BME280;70452;39.386;-3.210;2024-01-25T13:43:32;95652.19;;;15.63;100.00
80988;BME280;70452;39.386;-3.210;2024-01-25T13:45:58;95651.31;;;15.67;100.00